Time;durP1;ratioP1;P1;durP2;ratioP2;P2;SDS_P1;SDS_P2;PMS_P1;PMS_P2;Temp;Humidity;BMP_temperature;BMP_pressure;BME280_temperature;BME280_humidity;BME280_pressure;Samples;Min_cycle;Max_cycle;Signal;HPM_P1;HPM_P2
2022/03/19 00:01:02;;;;;;;;;1.25;1.25;;;;;;;;5096411;27;45608;-74
2022/03/19 00:03:27;;;;;;;;;1.75;1.00;;;;;;;;5092405;27;45924;-74
2022/03/19 00:05:52;;;;;;;;;2.75;1.00;;;;;;;;5094628;27;45516;-75
2022/03/19 00:08:18;;;;;;;;;2.25;1.00;;;;;;;;5092767;27;45311;-75
2022/03/19 00:10:43;;;;;;;;;2.75;1.75;;;;;;;;5094433;27;45380;-75
2022/03/19 00:13:10;;;;;;;;;1.00;1.00;;;;;;;;5096760;27;45415;-75
2022/03/19 00:15:35;;;;;;;;;1.75;1.75;;;;;;;;5094552;27;48405;-75
2022/03/19 00:18:00;;;;;;;;;1.00;1.00;;;;;;;;5091979;27;45369;-74
2022/03/19 00:20:25;;;;;;;;;1.00;1.00;;;;;;;;5094249;27;45433;-74
2022/03/19 00:22:51;;;;;;;;;1.00;1.00;;;;;;;;5093073;27;46952;-75
2022/03/19 00:25:16;;;;;;;;;0.00;0.00;;;;;;;;5095570;27;46369;-74
2022/03/19 00:27:42;;;;;;;;;1.00;1.00;;;;;;;;5095332;27;45362;-75
2022/03/19 00:30:08;;;;;;;;;1.00;1.00;;;;;;;;5093962;27;45460;-75
2022/03/19 00:32:33;;;;;;;;;1.00;1.00;;;;;;;;5092326;27;47248;-75
2022/03/19 00:34:58;;;;;;;;;1.75;1.75;;;;;;;;5094052;27;45429;-75
2022/03/19 00:37:24;;;;;;;;;2.00;0.50;;;;;;;;5094459;27;45211;-75
2022/03/19 00:39:49;;;;;;;;;1.50;1.50;;;;;;;;5094140;27;45182;-75
2022/03/19 00:42:14;;;;;;;;;1.00;1.00;;;;;;;;5092501;27;45566;-75
2022/03/19 00:44:39;;;;;;;;;1.00;1.00;;;;;;;;5094254;27;45360;-74
2022/03/19 00:47:05;;;;;;;;;2.00;1.00;;;;;;;;5077066;27;45346;-75
2022/03/19 00:49:30;;;;;;;;;1.00;1.00;;;;;;;;5093989;27;45625;-75
2022/03/19 00:51:56;;;;;;;;;2.00;1.75;;;;;;;;5095019;27;45241;-75
2022/03/19 00:54:21;;;;;;;;;1.00;1.00;;;;;;;;5092527;27;45518;-74
2022/03/19 00:56:47;;;;;;;;;0.75;0.75;;;;;;;;5094488;27;45477;-75
2022/03/19 00:59:12;;;;;;;;;1.00;1.00;;;;;;;;5092811;27;45432;-74
2022/03/19 01:01:37;;;;;;;;;2.00;1.00;;;;;;;;5092656;27;46287;-74
2022/03/19 01:04:03;;;;;;;;;1.75;1.00;;;;;;;;5095237;27;45319;-74
2022/03/19 01:06:28;;;;;;;;;2.25;1.00;;;;;;;;5076934;27;45593;-75
2022/03/19 01:08:53;;;;;;;;;1.00;1.00;;;;;;;;5092533;27;45348;-75
2022/03/19 01:11:23;;;;;;;;;0.00;0.00;;;;;;;;5093313;27;45914;-74
2022/03/19 01:13:48;;;;;;;;;1.50;1.25;;;;;;;;5092329;27;45370;-75
2022/03/19 01:16:14;;;;;;;;;1.00;1.00;;;;;;;;5098622;27;45374;-75
2022/03/19 01:18:39;;;;;;;;;1.25;0.75;;;;;;;;5098118;27;45429;-75
2022/03/19 01:21:05;;;;;;;;;1.00;1.00;;;;;;;;5097150;27;46260;-75
2022/03/19 01:23:30;;;;;;;;;2.00;2.00;;;;;;;;5097384;27;45436;-74
2022/03/19 01:25:55;;;;;;;;;1.75;1.75;;;;;;;;5096984;27;45389;-75
2022/03/19 01:28:20;;;;;;;;;1.00;1.00;;;;;;;;5098138;27;45553;-75
2022/03/19 01:30:45;;;;;;;;;1.00;1.00;;;;;;;;5097969;27;45859;-74
2022/03/19 01:33:10;;;;;;;;;1.75;1.75;;;;;;;;5096859;27;45381;-75
2022/03/19 01:35:36;;;;;;;;;3.00;1.00;;;;;;;;5097051;27;45419;-74
2022/03/19 01:38:04;;;;;;;;;0.00;0.00;;;;;;;;5095353;27;45415;-75
2022/03/19 01:40:30;;;;;;;;;1.00;0.75;;;;;;;;5096032;27;46220;-75
2022/03/19 01:42:57;;;;;;;;;1.00;1.00;;;;;;;;5097597;27;45354;-75
2022/03/19 01:45:23;;;;;;;;;1.00;1.00;;;;;;;;5093961;27;45398;-75
2022/03/19 01:47:48;;;;;;;;;1.75;1.25;;;;;;;;5096847;27;45244;-75
2022/03/19 01:50:14;;;;;;;;;2.50;1.00;;;;;;;;5094539;27;47074;-75
2022/03/19 01:52:40;;;;;;;;;2.75;1.50;;;;;;;;5097902;27;45301;-75
2022/03/19 01:55:06;;;;;;;;;0.25;0.00;;;;;;;;5094137;27;45379;-75
2022/03/19 01:57:37;;;;;;;;;1.00;1.00;;;;;;;;5096812;27;45535;-74
2022/03/19 02:00:03;;;;;;;;;1.00;1.00;;;;;;;;5094352;27;47081;-75
2022/03/19 02:02:28;;;;;;;;;1.00;1.00;;;;;;;;5095567;27;45335;-74
2022/03/19 02:04:54;;;;;;;;;4.50;2.00;;;;;;;;5095628;27;45232;-75
2022/03/19 02:07:19;;;;;;;;;1.75;1.75;;;;;;;;5097111;27;45477;-75
2022/03/19 02:09:45;;;;;;;;;2.75;1.00;;;;;;;;5095088;27;47378;-75
2022/03/19 02:12:10;;;;;;;;;1.75;1.75;;;;;;;;5095397;27;45418;-75
2022/03/19 02:14:36;;;;;;;;;2.25;1.00;;;;;;;;5094924;27;45329;-74
2022/03/19 02:17:02;;;;;;;;;1.00;1.00;;;;;;;;5094385;27;45266;-75
2022/03/19 02:19:27;;;;;;;;;1.50;1.50;;;;;;;;5094564;27;45430;-75
2022/03/19 02:21:52;;;;;;;;;1.00;1.00;;;;;;;;5098594;27;45406;-75
2022/03/19 02:27:02;;;;;;;;;1.75;1.25;;;;;;;;5094076;27;46000;-75
2022/03/19 02:29:27;;;;;;;;;1.75;1.75;;;;;;;;5093733;27;46140;-75
2022/03/19 02:31:53;;;;;;;;;2.00;2.00;;;;;;;;5094636;27;45378;-75
2022/03/19 02:34:18;;;;;;;;;1.00;1.00;;;;;;;;5097404;27;45404;-75
2022/03/19 02:36:44;;;;;;;;;2.25;2.00;;;;;;;;5097288;27;45452;-75
2022/03/19 02:39:11;;;;;;;;;0.75;0.75;;;;;;;;5093883;27;46223;-75
2022/03/19 02:41:40;;;;;;;;;2.00;1.00;;;;;;;;5095972;27;46999;-75
2022/03/19 02:44:05;;;;;;;;;2.25;1.00;;;;;;;;5095554;27;45333;-74
2022/03/19 02:46:40;;;;;;;;;1.50;1.50;;;;;;;;5095898;27;45499;-75
2022/03/19 02:49:05;;;;;;;;;0.25;0.25;;;;;;;;5097545;27;45998;-75
2022/03/19 02:51:32;;;;;;;;;1.00;1.00;;;;;;;;5094760;27;45508;-75
2022/03/19 02:53:57;;;;;;;;;1.00;1.00;;;;;;;;5094801;27;45623;-75
2022/03/19 02:56:22;;;;;;;;;0.25;0.25;;;;;;;;5095958;27;45438;-75
2022/03/19 02:58:47;;;;;;;;;3.00;0.50;;;;;;;;5095776;27;46107;-75
2022/03/19 03:01:13;;;;;;;;;1.00;1.00;;;;;;;;5094372;27;45462;-77
2022/03/19 03:03:38;;;;;;;;;1.00;1.00;;;;;;;;5096899;27;45243;-75
2022/03/19 03:06:03;;;;;;;;;2.25;1.00;;;;;;;;5095656;27;45457;-74
2022/03/19 03:08:28;;;;;;;;;1.00;1.00;;;;;;;;5093586;27;45929;-75
2022/03/19 03:10:54;;;;;;;;;2.00;2.00;;;;;;;;5092813;27;45385;-75
2022/03/19 03:13:19;;;;;;;;;2.00;2.00;;;;;;;;5096641;27;45382;-75
2022/03/19 03:15:45;;;;;;;;;1.00;1.00;;;;;;;;5096421;27;45386;-75
2022/03/19 03:18:10;;;;;;;;;4.50;1.25;;;;;;;;5095282;27;45425;-75
2022/03/19 03:20:35;;;;;;;;;4.00;1.25;;;;;;;;5094864;27;45460;-75
2022/03/19 03:23:01;;;;;;;;;1.00;1.00;;;;;;;;5096819;27;45433;-75
2022/03/19 03:25:26;;;;;;;;;1.00;1.00;;;;;;;;5095993;27;45336;-75
2022/03/19 03:27:52;;;;;;;;;1.25;1.25;;;;;;;;5094810;27;47021;-75
2022/03/19 03:30:18;;;;;;;;;1.00;1.00;;;;;;;;5093663;27;45319;-75
2022/03/19 03:32:43;;;;;;;;;2.50;1.50;;;;;;;;5096425;27;45400;-75
2022/03/19 03:35:09;;;;;;;;;1.00;1.00;;;;;;;;5095166;27;45357;-75
2022/03/19 03:37:34;;;;;;;;;1.25;1.25;;;;;;;;5093028;27;45452;-75
2022/03/19 03:39:59;;;;;;;;;1.00;1.00;;;;;;;;5096036;27;45414;-75
2022/03/19 03:42:24;;;;;;;;;1.00;1.00;;;;;;;;5092111;27;45229;-75
2022/03/19 03:44:54;;;;;;;;;2.00;2.00;;;;;;;;5093681;27;45370;-75
2022/03/19 03:47:19;;;;;;;;;1.00;1.00;;;;;;;;5093085;27;46087;-75
2022/03/19 03:49:44;;;;;;;;;2.00;2.00;;;;;;;;5095451;27;45476;-74
2022/03/19 03:52:09;;;;;;;;;2.50;1.75;;;;;;;;5097664;27;45479;-75
2022/03/19 03:54:34;;;;;;;;;2.00;2.00;;;;;;;;5094582;27;45398;-74
2022/03/19 03:57:00;;;;;;;;;3.25;1.75;;;;;;;;5094393;27;46867;-75
2022/03/19 03:59:25;;;;;;;;;1.00;1.00;;;;;;;;5094140;27;45383;-75
2022/03/19 04:01:50;;;;;;;;;2.00;1.75;;;;;;;;5093711;27;45572;-75
2022/03/19 04:04:15;;;;;;;;;1.50;1.50;;;;;;;;5097027;27;45439;-75
2022/03/19 04:06:41;;;;;;;;;3.00;1.00;;;;;;;;5099299;27;46712;-76
2022/03/19 04:09:06;;;;;;;;;2.00;2.00;;;;;;;;5094191;27;45457;-75
2022/03/19 04:11:31;;;;;;;;;0.25;0.25;;;;;;;;5093034;27;45232;-75
2022/03/19 04:13:59;;;;;;;;;1.75;1.75;;;;;;;;5095876;27;45811;-75
2022/03/19 04:16:25;;;;;;;;;1.50;1.50;;;;;;;;5095350;27;46345;-75
2022/03/19 04:18:50;;;;;;;;;1.25;1.25;;;;;;;;5094472;27;45408;-75
2022/03/19 04:21:15;;;;;;;;;2.00;1.75;;;;;;;;5091270;27;45472;-75
2022/03/19 04:23:40;;;;;;;;;3.00;3.00;;;;;;;;5094651;27;45476;-75
2022/03/19 04:26:05;;;;;;;;;1.00;1.00;;;;;;;;5092248;27;46216;-75
2022/03/19 04:28:31;;;;;;;;;1.75;1.00;;;;;;;;5094445;27;45821;-75
2022/03/19 04:30:56;;;;;;;;;1.00;1.00;;;;;;;;5096883;27;45433;-75
2022/03/19 04:33:21;;;;;;;;;2.00;2.00;;;;;;;;5092056;27;45468;-76
2022/03/19 04:38:30;;;;;;;;;3.25;2.00;;;;;;;;5092612;27;45387;-75
2022/03/19 04:40:56;;;;;;;;;1.75;1.75;;;;;;;;5094784;27;45470;-75
2022/03/19 04:43:22;;;;;;;;;1.25;1.25;;;;;;;;5094708;27;45338;-75
2022/03/19 04:45:48;;;;;;;;;1.75;1.75;;;;;;;;5095552;27;46328;-75
2022/03/19 04:48:13;;;;;;;;;2.00;2.00;;;;;;;;5095387;27;45473;-75
2022/03/19 04:50:39;;;;;;;;;2.50;2.00;;;;;;;;5095539;27;45393;-75
2022/03/19 04:53:06;;;;;;;;;2.00;2.00;;;;;;;;5095699;27;45437;-75
2022/03/19 04:55:31;;;;;;;;;3.00;2.00;;;;;;;;5097903;27;46081;-75
2022/03/19 04:57:56;;;;;;;;;3.50;2.50;;;;;;;;5099905;27;45524;-75
2022/03/19 05:00:21;;;;;;;;;3.50;2.75;;;;;;;;5096620;27;45396;-75
2022/03/19 05:02:47;;;;;;;;;1.50;1.25;;;;;;;;5097461;27;45482;-75
2022/03/19 05:05:12;;;;;;;;;3.00;3.00;;;;;;;;5095861;27;45432;-75
2022/03/19 05:07:39;;;;;;;;;3.00;3.00;;;;;;;;5096365;27;45472;-75
2022/03/19 05:12:49;;;;;;;;;3.75;2.00;;;;;;;;5099253;27;45302;-75
2022/03/19 05:15:15;;;;;;;;;1.00;1.00;;;;;;;;5095910;27;46392;-75
2022/03/19 05:17:41;;;;;;;;;1.75;1.75;;;;;;;;5097155;27;45243;-75
2022/03/19 05:20:07;;;;;;;;;3.25;3.25;;;;;;;;5097568;27;45315;-75
2022/03/19 05:22:32;;;;;;;;;2.25;2.25;;;;;;;;5078733;27;45581;-75
2022/03/19 05:24:57;;;;;;;;;2.00;2.00;;;;;;;;5099512;27;46228;-75
2022/03/19 05:27:23;;;;;;;;;2.75;2.00;;;;;;;;5098248;27;45309;-75
2022/03/19 05:29:48;;;;;;;;;3.00;3.00;;;;;;;;5095908;27;45411;-74
2022/03/19 05:32:14;;;;;;;;;5.50;2.75;;;;;;;;5098124;27;45594;-75
2022/03/19 05:34:39;;;;;;;;;4.25;3.00;;;;;;;;5096681;27;45340;-75
2022/03/19 05:37:04;;;;;;;;;4.50;3.00;;;;;;;;5098223;27;45423;-75
2022/03/19 05:39:32;;;;;;;;;1.75;1.75;;;;;;;;5097210;27;45207;-74
2022/03/19 05:41:57;;;;;;;;;3.50;2.00;;;;;;;;5095733;27;45369;-75
2022/03/19 05:44:22;;;;;;;;;2.75;2.75;;;;;;;;5096607;27;45508;-75
2022/03/19 05:46:48;;;;;;;;;4.00;3.00;;;;;;;;5081944;27;45360;-75
2022/03/19 05:49:13;;;;;;;;;2.00;2.00;;;;;;;;5098269;27;45646;-75
2022/03/19 05:51:38;;;;;;;;;2.00;2.00;;;;;;;;5094504;27;45262;-75
2022/03/19 05:54:04;;;;;;;;;2.25;2.25;;;;;;;;5095660;27;46114;-75
2022/03/19 05:56:29;;;;;;;;;3.00;3.00;;;;;;;;5096442;27;45446;-75
2022/03/19 05:58:55;;;;;;;;;3.00;3.00;;;;;;;;5094466;27;45324;-75
2022/03/19 06:01:26;;;;;;;;;2.50;2.50;;;;;;;;5097413;27;45371;-75
2022/03/19 06:03:51;;;;;;;;;5.00;5.00;;;;;;;;5098530;27;45472;-75
2022/03/19 06:06:16;;;;;;;;;2.75;2.00;;;;;;;;5093746;27;45409;-75
2022/03/19 06:08:41;;;;;;;;;3.50;2.00;;;;;;;;5096686;27;45384;-75
2022/03/19 06:11:07;;;;;;;;;4.00;4.00;;;;;;;;5095072;27;45316;-75
2022/03/19 06:13:32;;;;;;;;;3.00;3.00;;;;;;;;5079067;27;46434;-75
2022/03/19 06:15:57;;;;;;;;;3.50;3.00;;;;;;;;5093792;27;45392;-76
2022/03/19 06:18:22;;;;;;;;;2.75;2.75;;;;;;;;5094036;27;45462;-75
2022/03/19 06:20:48;;;;;;;;;2.75;2.00;;;;;;;;5095967;27;45427;-75
2022/03/19 06:23:13;;;;;;;;;3.50;3.00;;;;;;;;5094884;27;46455;-75
2022/03/19 06:25:38;;;;;;;;;4.00;4.00;;;;;;;;5094393;27;45290;-75
2022/03/19 06:28:03;;;;;;;;;3.00;3.00;;;;;;;;5075120;27;45383;-75
2022/03/19 06:30:31;;;;;;;;;4.00;4.00;;;;;;;;5096234;27;45445;-74
2022/03/19 06:32:58;;;;;;;;;4.75;4.75;;;;;;;;5094874;27;46915;-75
2022/03/19 06:38:21;;;;;;;;;4.75;4.75;;;;;;;;5034068;28;45364;-74
2022/03/19 06:40:46;;;;;;;;;3.50;3.50;;;;;;;;5034327;28;45396;-75
2022/03/19 06:43:11;;;;;;;;;5.50;5.25;;;;;;;;5004152;28;47687;-75
2022/03/19 06:45:37;;;;;;;;;6.50;6.50;;;;;;;;5034220;28;45498;-75
2022/03/19 06:48:02;;;;;;;;;6.25;4.75;;;;;;;;5035902;28;45475;-74
2022/03/19 06:50:27;;;;;;;;;5.00;5.00;;;;;;;;5033528;28;45458;-75
2022/03/19 06:52:53;;;;;;;;;6.00;5.00;;;;;;;;5034428;28;45375;-75
2022/03/19 06:55:18;;;;;;;;;4.75;4.75;;;;;;;;5034544;28;45300;-75
2022/03/19 06:57:43;;;;;;;;;5.50;5.50;;;;;;;;5034688;28;45474;-75
2022/03/19 07:00:08;;;;;;;;;4.75;4.75;;;;;;;;5034023;28;45357;-75
2022/03/19 07:02:45;;;;;;;;;4.75;4.00;;;;;;;;5033910;28;46101;-75
2022/03/19 07:05:10;;;;;;;;;5.25;5.25;;;;;;;;5033612;28;45499;-74
2022/03/19 07:07:35;;;;;;;;;4.75;4.00;;;;;;;;5033864;28;45615;-75
2022/03/19 07:10:00;;;;;;;;;4.25;3.00;;;;;;;;5034956;28;45399;-75
2022/03/19 07:12:26;;;;;;;;;3.75;3.75;;;;;;;;5032859;28;47118;-75
2022/03/19 07:14:51;;;;;;;;;5.25;4.00;;;;;;;;5081418;27;45476;-75
2022/03/19 07:17:16;;;;;;;;;5.00;4.75;;;;;;;;5094171;27;45552;-75
2022/03/19 07:19:41;;;;;;;;;6.50;5.00;;;;;;;;5093127;27;45318;-75
2022/03/19 07:22:06;;;;;;;;;6.00;5.00;;;;;;;;5097581;27;45369;-75
2022/03/19 07:24:32;;;;;;;;;5.00;5.00;;;;;;;;5093028;27;45432;-75
2022/03/19 07:26:57;;;;;;;;;5.75;5.50;;;;;;;;5095368;27;45412;-75
2022/03/19 07:29:22;;;;;;;;;5.00;4.50;;;;;;;;5095414;27;45474;-75
2022/03/19 07:31:47;;;;;;;;;9.00;7.00;;;;;;;;5093795;27;45879;-74
2022/03/19 07:34:13;;;;;;;;;5.00;5.00;;;;;;;;5096591;27;45385;-75
2022/03/19 07:36:38;;;;;;;;;7.00;7.00;;;;;;;;5094122;27;45638;-75
2022/03/19 07:39:03;;;;;;;;;9.00;7.00;;;;;;;;5093562;27;45489;-75
2022/03/19 07:41:48;;;;;;;;;6.00;6.00;;;;;;;;5090710;27;46199;-75
2022/03/19 07:44:14;;;;;;;;;7.50;5.75;;;;;;;;5088762;27;45381;-75
2022/03/19 07:46:41;;;;;;;;;7.25;6.75;;;;;;;;5075852;27;45434;-75
2022/03/19 07:49:07;;;;;;;;;7.50;7.50;;;;;;;;5096629;27;45493;-75
2022/03/19 07:51:32;;;;;;;;;6.25;6.00;;;;;;;;5095630;27;45400;-75
2022/03/19 07:53:57;;;;;;;;;6.25;6.00;;;;;;;;5094354;27;45533;-74
2022/03/19 07:56:24;;;;;;;;;8.75;6.75;;;;;;;;5093780;27;45398;-75
2022/03/19 07:58:50;;;;;;;;;9.25;7.00;;;;;;;;5095160;27;45530;-74
2022/03/19 08:01:19;;;;;;;;;12.00;7.25;;;;;;;;5095404;27;46810;-75
2022/03/19 08:03:45;;;;;;;;;9.75;7.00;;;;;;;;5095722;27;45393;-75
2022/03/19 08:06:10;;;;;;;;;10.25;9.25;;;;;;;;5093366;27;45537;-75
2022/03/19 08:08:37;;;;;;;;;8.25;7.00;;;;;;;;5094077;27;45451;-75
2022/03/19 08:11:02;;;;;;;;;5.25;5.00;;;;;;;;5094038;27;46248;-75
2022/03/19 08:13:28;;;;;;;;;10.25;8.25;;;;;;;;5095379;27;45316;-75
2022/03/19 08:15:53;;;;;;;;;11.25;9.50;;;;;;;;5094088;27;45279;-75
2022/03/19 08:18:18;;;;;;;;;11.50;8.25;;;;;;;;5094685;27;45398;-75
2022/03/19 08:20:45;;;;;;;;;9.00;9.00;;;;;;;;5093765;27;46115;-76
2022/03/19 08:23:11;;;;;;;;;6.00;6.00;;;;;;;;5093807;27;45282;-75
2022/03/19 08:25:37;;;;;;;;;9.00;8.75;;;;;;;;5093653;27;45413;-75
2022/03/19 08:28:02;;;;;;;;;10.50;9.00;;;;;;;;5095828;27;45391;-72
2022/03/19 08:30:28;;;;;;;;;9.75;9.25;;;;;;;;5094491;27;46101;-72
2022/03/19 08:32:53;;;;;;;;;11.75;10.50;;;;;;;;5093937;27;45388;-72
2022/03/19 08:35:18;;;;;;;;;10.75;7.75;;;;;;;;5093404;27;45452;-70
2022/03/19 08:37:44;;;;;;;;;11.00;7.50;;;;;;;;5094369;27;45361;-70
2022/03/19 08:40:15;;;;;;;;;12.75;10.00;;;;;;;;5096487;27;47360;-70
2022/03/19 08:42:40;;;;;;;;;10.25;10.25;;;;;;;;5093112;27;45385;-70
2022/03/19 08:45:06;;;;;;;;;10.25;9.50;;;;;;;;5091542;27;45427;-70
2022/03/19 08:47:31;;;;;;;;;11.75;11.75;;;;;;;;5092654;27;45560;-70
2022/03/19 08:49:57;;;;;;;;;16.00;14.75;;;;;;;;5096764;27;47131;-70
2022/03/19 08:52:22;;;;;;;;;16.50;16.50;;;;;;;;5096476;27;45316;-70
2022/03/19 08:54:47;;;;;;;;;13.75;10.75;;;;;;;;5097002;27;45176;-69
2022/03/19 08:57:14;;;;;;;;;14.50;11.00;;;;;;;;5096301;27;45593;-69
2022/03/19 08:59:39;;;;;;;;;13.25;12.00;;;;;;;;5092837;27;45414;-70
2022/03/19 09:02:04;;;;;;;;;14.50;11.50;;;;;;;;5093980;27;45300;-71
2022/03/19 09:04:30;;;;;;;;;13.50;11.25;;;;;;;;5094748;27;45472;-71
2022/03/19 09:06:55;;;;;;;;;12.25;11.25;;;;;;;;5093800;27;45357;-71
2022/03/19 09:09:20;;;;;;;;;14.50;12.50;;;;;;;;5092035;27;46290;-71
2022/03/19 09:11:48;;;;;;;;;12.25;11.25;;;;;;;;5093212;27;45430;-71
2022/03/19 09:14:13;;;;;;;;;12.25;11.25;;;;;;;;5091703;27;45264;-69
2022/03/19 09:16:40;;;;;;;;;15.50;12.75;;;;;;;;5093516;27;45615;-72
2022/03/19 09:19:05;;;;;;;;;13.75;12.25;;;;;;;;5095816;27;46262;-69
2022/03/19 09:21:31;;;;;;;;;16.00;14.50;;;;;;;;5093374;27;45460;-70
2022/03/19 09:23:57;;;;;;;;;13.25;10.25;;;;;;;;5092175;27;45477;-70
2022/03/19 09:26:22;;;;;;;;;14.50;13.50;;;;;;;;5091671;27;45303;-70
2022/03/19 09:28:48;;;;;;;;;13.75;12.00;;;;;;;;5092112;27;45386;-70
2022/03/19 09:31:15;;;;;;;;;14.25;13.50;;;;;;;;5095291;27;45502;-70
2022/03/19 09:33:42;;;;;;;;;13.50;12.00;;;;;;;;5093569;27;45358;-70
2022/03/19 09:36:07;;;;;;;;;13.75;13.75;;;;;;;;5094630;27;45619;-70
2022/03/19 09:38:32;;;;;;;;;13.50;12.00;;;;;;;;5093512;27;45467;-70
2022/03/19 09:40:58;;;;;;;;;11.75;11.25;;;;;;;;5095346;27;48190;-69
2022/03/19 09:43:24;;;;;;;;;13.25;10.50;;;;;;;;5097556;27;45328;-69
2022/03/19 09:45:49;;;;;;;;;13.50;12.50;;;;;;;;5096488;27;45275;-70
2022/03/19 09:48:14;;;;;;;;;12.25;12.00;;;;;;;;5090852;27;46290;-70
2022/03/19 09:50:41;;;;;;;;;15.75;15.00;;;;;;;;5097174;27;45409;-69
2022/03/19 09:53:07;;;;;;;;;14.75;14.00;;;;;;;;5097730;27;45476;-70
2022/03/19 09:55:32;;;;;;;;;20.25;16.00;;;;;;;;5097103;27;45423;-70
2022/03/19 09:57:58;;;;;;;;;16.25;15.25;;;;;;;;5096880;27;47031;-70
2022/03/19 10:00:24;;;;;;;;;17.00;16.00;;;;;;;;5096320;27;45397;-70
2022/03/19 10:02:55;;;;;;;;;16.25;14.25;;;;;;;;5095086;27;45400;-70
2022/03/19 10:10:48;;;;;;;;;14.00;12.50;;;;;;;;5081118;27;45424;-69
2022/03/19 10:13:14;;;;;;;;;15.00;12.75;;;;;;;;5097854;27;45476;-70
2022/03/19 10:15:40;;;;;;;;;17.50;14.50;;;;;;;;5096682;27;45308;-70
2022/03/19 10:18:07;;;;;;;;;15.25;12.50;;;;;;;;5092311;27;47104;-70
2022/03/19 10:20:34;;;;;;;;;16.50;15.50;;;;;;;;5096412;27;45484;-70
2022/03/19 10:22:59;;;;;;;;;15.00;13.25;;;;;;;;5094007;27;45525;-69
2022/03/19 10:25:25;;;;;;;;;14.50;14.50;;;;;;;;5096633;27;45364;-69
2022/03/19 10:27:50;;;;;;;;;16.00;14.00;;;;;;;;5096788;27;46298;-69
2022/03/19 10:30:23;;;;;;;;;15.75;13.50;;;;;;;;5080010;27;45442;-69
2022/03/19 10:32:51;;;;;;;;;15.00;14.00;;;;;;;;5096181;27;45368;-70
2022/03/19 10:35:32;;;;;;;;;14.50;14.50;;;;;;;;5095119;27;45570;-70
2022/03/19 10:37:59;;;;;;;;;15.00;12.25;;;;;;;;5094668;27;45297;-70
2022/03/19 10:40:37;;;;;;;;;13.75;12.75;;;;;;;;5096970;27;45536;-69
2022/03/19 10:43:04;;;;;;;;;16.25;12.50;;;;;;;;5096559;27;45478;-70
2022/03/19 10:45:30;;;;;;;;;15.50;14.00;;;;;;;;5094234;27;45310;-70
2022/03/19 10:47:55;;;;;;;;;14.25;14.25;;;;;;;;5093089;27;46234;-69
2022/03/19 10:50:21;;;;;;;;;19.25;15.50;;;;;;;;5094172;27;45464;-70
2022/03/19 10:52:48;;;;;;;;;14.25;13.25;;;;;;;;5096038;27;45211;-70
2022/03/19 10:55:13;;;;;;;;;15.00;15.00;;;;;;;;5098158;27;45511;-69
2022/03/19 10:57:38;;;;;;;;;17.75;15.75;;;;;;;;5098253;27;46278;-70
2022/03/19 11:00:04;;;;;;;;;13.25;13.00;;;;;;;;5095860;27;45522;-69
2022/03/19 11:02:30;;;;;;;;;16.00;14.75;;;;;;;;5095218;27;45622;-70
2022/03/19 11:04:57;;;;;;;;;16.75;15.75;;;;;;;;5093530;27;45579;-69
2022/03/19 11:07:24;;;;;;;;;14.50;14.50;;;;;;;;5096447;27;45573;-70
2022/03/19 11:09:53;;;;;;;;;17.25;15.50;;;;;;;;5094611;27;45490;-69
2022/03/19 11:12:21;;;;;;;;;17.50;14.00;;;;;;;;5093929;27;45467;-70
2022/03/19 11:14:49;;;;;;;;;16.25;16.25;;;;;;;;5093266;27;45542;-69
2022/03/19 11:17:23;;;;;;;;;17.75;15.25;;;;;;;;5094941;27;45526;-70
2022/03/19 11:19:48;;;;;;;;;19.25;14.50;;;;;;;;5079936;27;45323;-69
2022/03/19 11:22:13;;;;;;;;;15.75;15.75;;;;;;;;5097711;27;45336;-70
2022/03/19 11:24:44;;;;;;;;;14.75;14.00;;;;;;;;5093598;27;45305;-70
2022/03/19 11:27:10;;;;;;;;;15.50;15.25;;;;;;;;5091315;27;46234;-70
2022/03/19 11:29:36;;;;;;;;;19.50;18.25;;;;;;;;5095007;27;45333;-69
2022/03/19 11:32:01;;;;;;;;;13.50;13.50;;;;;;;;5095399;27;45297;-69
2022/03/19 11:34:41;;;;;;;;;15.00;15.00;;;;;;;;5095955;27;45463;-72
2022/03/19 11:37:06;;;;;;;;;20.25;14.25;;;;;;;;5096656;27;45496;-70
2022/03/19 11:39:31;;;;;;;;;15.25;13.00;;;;;;;;5092249;27;45471;-69
2022/03/19 11:41:57;;;;;;;;;15.50;14.50;;;;;;;;5077763;27;45408;-70
2022/03/19 11:44:23;;;;;;;;;18.75;17.25;;;;;;;;5092558;27;45433;-68
2022/03/19 11:46:59;;;;;;;;;18.50;18.00;;;;;;;;5094886;27;46651;-70
2022/03/19 11:49:43;;;;;;;;;14.75;14.75;;;;;;;;5094955;27;45325;-70
2022/03/19 11:52:08;;;;;;;;;19.75;17.00;;;;;;;;5097008;27;45366;-69
2022/03/19 11:54:54;;;;;;;;;15.50;15.50;;;;;;;;5094258;27;45730;-69
2022/03/19 11:57:20;;;;;;;;;17.50;16.25;;;;;;;;5094400;27;47282;-70
2022/03/19 11:59:46;;;;;;;;;17.00;13.50;;;;;;;;5091863;27;45698;-70
2022/03/19 12:02:12;;;;;;;;;20.00;17.75;;;;;;;;5093500;27;45351;-70
2022/03/19 12:04:42;;;;;;;;;19.00;17.75;;;;;;;;5094246;27;45389;-69
2022/03/19 12:07:08;;;;;;;;;13.00;13.00;;;;;;;;5096123;27;46128;-70
2022/03/19 12:09:53;;;;;;;;;21.75;20.00;;;;;;;;5092870;27;45555;-70
2022/03/19 12:12:26;;;;;;;;;16.00;16.00;;;;;;;;5094259;27;45543;-70
2022/03/19 12:14:51;;;;;;;;;19.25;17.50;;;;;;;;5093036;27;45153;-70
2022/03/19 12:17:19;;;;;;;;;15.75;14.50;;;;;;;;5092009;27;45309;-70
2022/03/19 12:20:04;;;;;;;;;17.00;15.50;;;;;;;;5094117;27;45586;-70
2022/03/19 12:22:39;;;;;;;;;16.50;15.75;;;;;;;;5092540;27;45313;-70
2022/03/19 12:25:07;;;;;;;;;19.50;15.50;;;;;;;;5096471;27;45748;-70
2022/03/19 12:27:33;;;;;;;;;17.75;16.75;;;;;;;;5094267;27;46404;-70
2022/03/19 12:29:58;;;;;;;;;19.00;17.00;;;;;;;;5092471;27;45491;-70
2022/03/19 12:32:23;;;;;;;;;18.75;18.75;;;;;;;;5092759;27;47989;-70
2022/03/19 12:34:57;;;;;;;;;18.75;16.00;;;;;;;;5094200;27;45274;-70
2022/03/19 12:37:22;;;;;;;;;17.75;15.50;;;;;;;;5094620;27;47519;-71
2022/03/19 12:39:56;;;;;;;;;14.00;14.00;;;;;;;;5093849;27;45437;-70
2022/03/19 12:42:31;;;;;;;;;18.00;16.75;;;;;;;;5092000;27;45373;-70
2022/03/19 12:44:59;;;;;;;;;22.25;20.50;;;;;;;;5094236;27;45578;-70
2022/03/19 12:47:24;;;;;;;;;20.75;19.25;;;;;;;;5093485;27;45906;-70
2022/03/19 12:49:54;;;;;;;;;20.25;18.50;;;;;;;;5092307;27;45373;-70
2022/03/19 12:52:19;;;;;;;;;17.25;16.75;;;;;;;;5094965;27;45384;-70
2022/03/19 12:54:50;;;;;;;;;20.25;17.75;;;;;;;;5093162;27;45438;-70
2022/03/19 12:57:23;;;;;;;;;17.50;17.00;;;;;;;;5092731;27;45280;-70
2022/03/19 12:59:51;;;;;;;;;20.00;16.00;;;;;;;;5092092;27;46234;-70
2022/03/19 13:02:16;;;;;;;;;17.50;16.25;;;;;;;;5093956;27;45292;-70
2022/03/19 13:04:43;;;;;;;;;16.25;13.25;;;;;;;;5092743;27;45561;-70
2022/03/19 13:07:08;;;;;;;;;15.50;15.00;;;;;;;;5095158;27;47074;-70
2022/03/19 13:09:34;;;;;;;;;16.00;15.25;;;;;;;;5093880;27;45286;-70
2022/03/19 13:12:04;;;;;;;;;17.75;17.00;;;;;;;;5096613;27;45507;-70
2022/03/19 13:14:29;;;;;;;;;21.00;19.75;;;;;;;;5097369;27;45350;-70
2022/03/19 13:16:55;;;;;;;;;16.00;16.00;;;;;;;;5097117;27;46207;-70
2022/03/19 13:19:24;;;;;;;;;18.75;16.25;;;;;;;;5098457;27;45302;-70
2022/03/19 13:21:50;;;;;;;;;16.75;14.75;;;;;;;;5098175;27;45509;-70
2022/03/19 13:24:19;;;;;;;;;15.25;12.75;;;;;;;;5095751;27;45401;-70
2022/03/19 13:26:45;;;;;;;;;17.00;16.00;;;;;;;;5096544;27;45877;-70
2022/03/19 13:29:11;;;;;;;;;18.25;16.25;;;;;;;;5095795;27;45357;-70
2022/03/19 13:31:56;;;;;;;;;23.50;18.00;;;;;;;;5096605;27;45484;-70
2022/03/19 13:34:27;;;;;;;;;23.75;17.00;;;;;;;;5094975;27;45323;-70
2022/03/19 13:37:09;;;;;;;;;17.50;15.25;;;;;;;;5098446;27;46236;-70
2022/03/19 13:39:36;;;;;;;;;19.25;18.00;;;;;;;;5078969;27;45454;-70
2022/03/19 13:42:05;;;;;;;;;19.50;17.50;;;;;;;;5096527;27;45472;-71
2022/03/19 13:44:37;;;;;;;;;17.50;13.75;;;;;;;;5095082;27;45322;-70
2022/03/19 13:47:11;;;;;;;;;16.75;16.00;;;;;;;;5095066;27;45484;-70
2022/03/19 13:49:38;;;;;;;;;19.75;19.00;;;;;;;;5096582;27;45295;-70
2022/03/19 13:52:04;;;;;;;;;20.75;17.25;;;;;;;;5099035;27;45520;-70
2022/03/19 13:54:42;;;;;;;;;17.00;14.00;;;;;;;;5094195;27;45345;-70
2022/03/19 13:57:07;;;;;;;;;16.25;15.25;;;;;;;;5096574;27;47299;-70
2022/03/19 13:59:33;;;;;;;;;17.75;14.75;;;;;;;;5092836;27;45392;-70
2022/03/19 14:02:03;;;;;;;;;19.50;17.50;;;;;;;;5095408;27;45401;-70
2022/03/19 14:04:28;;;;;;;;;17.50;16.00;;;;;;;;5097744;27;45455;-70
2022/03/19 14:06:54;;;;;;;;;19.00;15.75;;;;;;;;5095957;27;46097;-69
2022/03/19 14:09:20;;;;;;;;;17.50;16.50;;;;;;;;5094491;27;45445;-70
2022/03/19 14:11:47;;;;;;;;;17.00;16.75;;;;;;;;5094498;27;45236;-71
2022/03/19 14:14:16;;;;;;;;;16.50;16.25;;;;;;;;5094175;27;45545;-70
2022/03/19 14:16:59;;;;;;;;;19.00;19.00;;;;;;;;5096533;27;46915;-70
2022/03/19 14:19:25;;;;;;;;;17.00;16.50;;;;;;;;5095813;27;45303;-70
2022/03/19 14:21:50;;;;;;;;;22.25;19.25;;;;;;;;5099037;27;45341;-70
2022/03/19 14:24:16;;;;;;;;;17.00;17.00;;;;;;;;5099311;27;45533;-70
2022/03/19 14:26:43;;;;;;;;;20.25;16.50;;;;;;;;5097213;27;45869;-70
2022/03/19 14:29:09;;;;;;;;;16.50;16.00;;;;;;;;5096417;27;45361;-70
2022/03/19 14:31:34;;;;;;;;;18.00;16.00;;;;;;;;5096241;27;45413;-71
2022/03/19 14:34:00;;;;;;;;;19.50;15.50;;;;;;;;5097676;27;45589;-70
2022/03/19 14:36:27;;;;;;;;;15.50;14.00;;;;;;;;5095896;27;47159;-70
2022/03/19 14:38:52;;;;;;;;;15.00;14.75;;;;;;;;5095659;27;45470;-70
2022/03/19 14:41:19;;;;;;;;;14.50;14.00;;;;;;;;5096143;27;45490;-70
2022/03/19 14:43:46;;;;;;;;;18.75;14.25;;;;;;;;5096039;27;45532;-70